Weather at Santa Barbara Municipal Airport

Public forecast

Using degrees Fahrenheit for public forecast. Weather courtesy of forecast.io.

Current aviation weather report (METAR) for Santa Barbara Municipal Airport

Report is more than 6 hours old.

2022/11/14 14:53 (retrieved 2 years ago)

KSBA 141453Z 36003KT 10SM CLR 03/01 A3011 RMK AO2 SLP195 T00330006 53008

Aviation forecast (TAF) for Santa Barbara Municipal Airport

Forecast is more than 12 hours old.

2023/02/22 18:48 (retrieved 1 year ago)

TAF KSBA 221747Z 2218/2318 27011KT P6SM FEW029 SCT050 FM221900 32020G30KT P6SM -SHRA BKN050 FM222200 30025G35KT P6SM -SHRA BKN050 BKN100 FM230300 30014G24KT P6SM -SHRA BKN050 OVC100 FM231000 31010KT 6SM -RA BR BKN025 OVC040